sensor_id;sensor_type;location;lat;lon;timestamp;P1;durP1;ratioP1;P2;durP2;ratioP2
71413;SDS011;59226;53.212;5.728;2022-10-31T00:01:40;6.87;;;1.97;;
71413;SDS011;59226;53.212;5.728;2022-10-31T00:04:06;2.70;;;1.10;;
71413;SDS011;59226;53.212;5.728;2022-10-31T00:06:31;10.70;;;1.67;;
71413;SDS011;59226;53.212;5.728;2022-10-31T00:08:58;6.57;;;1.80;;
71413;SDS011;59226;53.212;5.728;2022-10-31T00:11:23;3.15;;;1.38;;
71413;SDS011;59226;53.212;5.728;2022-10-31T00:13:49;2.30;;;1.00;;
71413;SDS011;59226;53.212;5.728;2022-10-31T00:16:15;2.33;;;1.13;;
71413;SDS011;59226;53.212;5.728;2022-10-31T00:18:40;3.40;;;0.93;;
71413;SDS011;59226;53.212;5.728;2022-10-31T00:21:05;3.70;;;2.10;;
71413;SDS011;59226;53.212;5.728;2022-10-31T00:23:31;3.10;;;1.60;;
71413;SDS011;59226;53.212;5.728;2022-10-31T00:26:02;2.67;;;1.27;;
71413;SDS011;59226;53.212;5.728;2022-10-31T00:28:28;4.57;;;1.67;;
71413;SDS011;59226;53.212;5.728;2022-10-31T00:30:57;6.78;;;1.48;;
71413;SDS011;59226;53.212;5.728;2022-10-31T00:33:22;2.58;;;1.20;;
71413;SDS011;59226;53.212;5.728;2022-10-31T00:35:51;2.10;;;1.00;;
71413;SDS011;59226;53.212;5.728;2022-10-31T00:38:16;3.17;;;1.48;;
71413;SDS011;59226;53.212;5.728;2022-10-31T00:40:41;4.57;;;1.50;;
71413;SDS011;59226;53.212;5.728;2022-10-31T00:43:06;2.80;;;1.30;;
71413;SDS011;59226;53.212;5.728;2022-10-31T00:45:32;9.07;;;2.03;;
71413;SDS011;59226;53.212;5.728;2022-10-31T00:47:57;3.80;;;1.60;;
71413;SDS011;59226;53.212;5.728;2022-10-31T00:50:22;5.03;;;1.80;;
71413;SDS011;59226;53.212;5.728;2022-10-31T00:52:47;2.33;;;1.00;;
71413;SDS011;59226;53.212;5.728;2022-10-31T00:55:12;3.07;;;1.30;;
71413;SDS011;59226;53.212;5.728;2022-10-31T00:57:38;2.30;;;1.10;;
71413;SDS011;59226;53.212;5.728;2022-10-31T01:00:03;9.27;;;1.77;;
71413;SDS011;59226;53.212;5.728;2022-10-31T01:02:28;3.50;;;1.73;;
71413;SDS011;59226;53.212;5.728;2022-10-31T01:04:54;4.00;;;1.17;;
71413;SDS011;59226;53.212;5.728;2022-10-31T01:07:19;8.13;;;1.43;;
71413;SDS011;59226;53.212;5.728;2022-10-31T01:09:44;2.63;;;1.30;;
71413;SDS011;59226;53.212;5.728;2022-10-31T01:12:09;2.83;;;0.93;;
71413;SDS011;59226;53.212;5.728;2022-10-31T01:14:34;12.93;;;1.87;;
71413;SDS011;59226;53.212;5.728;2022-10-31T01:17:00;2.27;;;1.37;;
71413;SDS011;59226;53.212;5.728;2022-10-31T01:19:26;4.28;;;1.45;;
71413;SDS011;59226;53.212;5.728;2022-10-31T01:21:53;3.37;;;1.53;;
71413;SDS011;59226;53.212;5.728;2022-10-31T01:24:19;3.47;;;1.30;;
71413;SDS011;59226;53.212;5.728;2022-10-31T01:26:44;5.57;;;1.47;;
71413;SDS011;59226;53.212;5.728;2022-10-31T01:29:09;3.00;;;1.60;;
71413;SDS011;59226;53.212;5.728;2022-10-31T01:31:36;1.97;;;0.90;;
71413;SDS011;59226;53.212;5.728;2022-10-31T01:34:01;10.70;;;1.90;;
71413;SDS011;59226;53.212;5.728;2022-10-31T01:36:28;3.63;;;1.47;;
71413;SDS011;59226;53.212;5.728;2022-10-31T01:38:55;7.25;;;1.77;;
71413;SDS011;59226;53.212;5.728;2022-10-31T01:41:21;17.38;;;2.05;;
71413;SDS011;59226;53.212;5.728;2022-10-31T01:43:51;4.70;;;2.53;;
71413;SDS011;59226;53.212;5.728;2022-10-31T01:46:38;2.65;;;0.98;;
71413;SDS011;59226;53.212;5.728;2022-10-31T01:49:04;3.07;;;1.30;;
71413;SDS011;59226;53.212;5.728;2022-10-31T01:51:31;11.63;;;1.50;;
71413;SDS011;59226;53.212;5.728;2022-10-31T01:53:58;3.10;;;1.60;;
71413;SDS011;59226;53.212;5.728;2022-10-31T01:56:26;3.38;;;1.33;;
71413;SDS011;59226;53.212;5.728;2022-10-31T01:58:51;3.87;;;1.27;;
71413;SDS011;59226;53.212;5.728;2022-10-31T02:01:18;3.38;;;1.80;;
71413;SDS011;59226;53.212;5.728;2022-10-31T02:03:43;3.10;;;1.53;;
71413;SDS011;59226;53.212;5.728;2022-10-31T02:06:12;3.33;;;1.20;;
71413;SDS011;59226;53.212;5.728;2022-10-31T02:08:39;3.25;;;1.50;;
71413;SDS011;59226;53.212;5.728;2022-10-31T02:11:05;1.95;;;1.20;;
71413;SDS011;59226;53.212;5.728;2022-10-31T02:13:31;4.70;;;2.40;;
71413;SDS011;59226;53.212;5.728;2022-10-31T02:15:58;2.92;;;1.60;;
71413;SDS011;59226;53.212;5.728;2022-10-31T02:18:24;2.80;;;1.30;;
71413;SDS011;59226;53.212;5.728;2022-10-31T02:26:07;3.45;;;1.67;;
71413;SDS011;59226;53.212;5.728;2022-10-31T02:33:51;2.73;;;1.37;;
71413;SDS011;59226;53.212;5.728;2022-10-31T02:38:56;3.73;;;1.80;;
71413;SDS011;59226;53.212;5.728;2022-10-31T02:41:27;5.47;;;1.60;;
71413;SDS011;59226;53.212;5.728;2022-10-31T02:48:46;3.67;;;1.57;;
71413;SDS011;59226;53.212;5.728;2022-10-31T02:51:13;5.03;;;2.35;;
71413;SDS011;59226;53.212;5.728;2022-10-31T02:53:38;4.30;;;2.43;;
71413;SDS011;59226;53.212;5.728;2022-10-31T02:58:38;6.72;;;2.38;;
71413;SDS011;59226;53.212;5.728;2022-10-31T03:01:10;2.67;;;1.53;;
71413;SDS011;59226;53.212;5.728;2022-10-31T03:06:50;5.93;;;2.67;;
71413;SDS011;59226;53.212;5.728;2022-10-31T03:08:58;3.25;;;1.45;;
71413;SDS011;59226;53.212;5.728;2022-10-31T03:11:28;5.65;;;2.47;;
71413;SDS011;59226;53.212;5.728;2022-10-31T03:14:00;4.00;;;2.07;;
71413;SDS011;59226;53.212;5.728;2022-10-31T03:19:17;4.60;;;1.88;;
71413;SDS011;59226;53.212;5.728;2022-10-31T03:21:45;5.00;;;2.00;;
71413;SDS011;59226;53.212;5.728;2022-10-31T03:24:12;4.88;;;1.85;;
71413;SDS011;59226;53.212;5.728;2022-10-31T03:26:39;2.50;;;1.47;;
71413;SDS011;59226;53.212;5.728;2022-10-31T03:29:05;3.15;;;1.80;;
71413;SDS011;59226;53.212;5.728;2022-10-31T03:31:35;4.47;;;1.40;;
71413;SDS011;59226;53.212;5.728;2022-10-31T03:34:03;3.67;;;1.67;;
71413;SDS011;59226;53.212;5.728;2022-10-31T03:36:33;4.13;;;1.83;;
71413;SDS011;59226;53.212;5.728;2022-10-31T03:38:59;4.35;;;2.05;;
71413;SDS011;59226;53.212;5.728;2022-10-31T03:41:27;3.83;;;2.25;;
71413;SDS011;59226;53.212;5.728;2022-10-31T03:46:48;3.95;;;2.10;;
71413;SDS011;59226;53.212;5.728;2022-10-31T03:49:13;6.10;;;2.03;;
71413;SDS011;59226;53.212;5.728;2022-10-31T03:54:15;5.10;;;2.08;;
71413;SDS011;59226;53.212;5.728;2022-10-31T03:56:54;5.65;;;1.92;;
71413;SDS011;59226;53.212;5.728;2022-10-31T03:59:29;3.83;;;1.38;;
71413;SDS011;59226;53.212;5.728;2022-10-31T04:01:58;3.50;;;1.87;;
71413;SDS011;59226;53.212;5.728;2022-10-31T04:04:25;4.50;;;1.65;;
71413;SDS011;59226;53.212;5.728;2022-10-31T04:06:51;4.65;;;2.65;;
71413;SDS011;59226;53.212;5.728;2022-10-31T04:09:17;4.72;;;1.45;;
71413;SDS011;59226;53.212;5.728;2022-10-31T04:11:45;3.58;;;1.65;;
71413;SDS011;59226;53.212;5.728;2022-10-31T04:14:12;4.57;;;2.10;;
71413;SDS011;59226;53.212;5.728;2022-10-31T04:16:41;3.17;;;1.70;;
71413;SDS011;59226;53.212;5.728;2022-10-31T04:19:07;8.43;;;2.70;;
71413;SDS011;59226;53.212;5.728;2022-10-31T04:21:32;3.13;;;1.33;;
71413;SDS011;59226;53.212;5.728;2022-10-31T04:23:57;4.27;;;1.43;;
71413;SDS011;59226;53.212;5.728;2022-10-31T04:26:22;3.37;;;1.30;;
71413;SDS011;59226;53.212;5.728;2022-10-31T04:28:48;4.22;;;1.90;;
71413;SDS011;59226;53.212;5.728;2022-10-31T04:31:13;6.17;;;1.93;;
71413;SDS011;59226;53.212;5.728;2022-10-31T04:33:39;3.23;;;1.63;;
71413;SDS011;59226;53.212;5.728;2022-10-31T04:36:04;5.00;;;2.10;;
71413;SDS011;59226;53.212;5.728;2022-10-31T04:38:32;5.38;;;2.25;;
71413;SDS011;59226;53.212;5.728;2022-10-31T04:40:57;4.57;;;1.40;;
71413;SDS011;59226;53.212;5.728;2022-10-31T04:43:22;5.27;;;2.60;;
71413;SDS011;59226;53.212;5.728;2022-10-31T04:45:48;4.10;;;1.80;;
71413;SDS011;59226;53.212;5.728;2022-10-31T04:48:13;4.30;;;2.20;;
71413;SDS011;59226;53.212;5.728;2022-10-31T04:50:38;5.10;;;1.70;;
71413;SDS011;59226;53.212;5.728;2022-10-31T04:53:03;5.50;;;2.37;;
71413;SDS011;59226;53.212;5.728;2022-10-31T04:55:29;7.30;;;1.93;;
71413;SDS011;59226;53.212;5.728;2022-10-31T04:57:54;3.00;;;1.90;;
71413;SDS011;59226;53.212;5.728;2022-10-31T05:00:20;7.97;;;2.23;;
71413;SDS011;59226;53.212;5.728;2022-10-31T05:02:50;4.73;;;1.90;;
71413;SDS011;59226;53.212;5.728;2022-10-31T05:05:16;4.22;;;1.40;;
71413;SDS011;59226;53.212;5.728;2022-10-31T05:07:42;2.65;;;1.35;;
71413;SDS011;59226;53.212;5.728;2022-10-31T05:10:09;4.22;;;2.10;;
71413;SDS011;59226;53.212;5.728;2022-10-31T05:12:35;3.38;;;1.52;;
71413;SDS011;59226;53.212;5.728;2022-10-31T05:15:00;3.77;;;1.60;;
71413;SDS011;59226;53.212;5.728;2022-10-31T05:17:25;4.53;;;2.33;;
71413;SDS011;59226;53.212;5.728;2022-10-31T05:19:51;3.03;;;1.73;;
71413;SDS011;59226;53.212;5.728;2022-10-31T05:22:16;4.03;;;1.93;;
71413;SDS011;59226;53.212;5.728;2022-10-31T05:24:41;3.30;;;1.97;;
71413;SDS011;59226;53.212;5.728;2022-10-31T05:27:06;4.53;;;1.93;;
71413;SDS011;59226;53.212;5.728;2022-10-31T05:29:31;7.80;;;2.57;;
71413;SDS011;59226;53.212;5.728;2022-10-31T05:31:58;3.47;;;1.77;;
71413;SDS011;59226;53.212;5.728;2022-10-31T05:34:23;4.40;;;2.10;;
71413;SDS011;59226;53.212;5.728;2022-10-31T05:36:48;4.47;;;1.87;;
71413;SDS011;59226;53.212;5.728;2022-10-31T05:39:14;5.97;;;2.60;;
71413;SDS011;59226;53.212;5.728;2022-10-31T05:41:39;2.23;;;1.23;;
71413;SDS011;59226;53.212;5.728;2022-10-31T05:44:04;7.87;;;2.13;;
71413;SDS011;59226;53.212;5.728;2022-10-31T05:46:29;3.93;;;2.03;;
71413;SDS011;59226;53.212;5.728;2022-10-31T05:48:55;4.70;;;2.27;;
71413;SDS011;59226;53.212;5.728;2022-10-31T05:51:20;4.60;;;2.23;;
71413;SDS011;59226;53.212;5.728;2022-10-31T05:53:45;3.83;;;2.00;;
71413;SDS011;59226;53.212;5.728;2022-10-31T05:56:11;3.58;;;1.17;;
71413;SDS011;59226;53.212;5.728;2022-10-31T05:58:36;5.63;;;1.60;;
71413;SDS011;59226;53.212;5.728;2022-10-31T06:01:01;3.10;;;1.43;;
71413;SDS011;59226;53.212;5.728;2022-10-31T06:03:26;4.33;;;1.53;;
71413;SDS011;59226;53.212;5.728;2022-10-31T06:05:51;8.33;;;1.97;;
71413;SDS011;59226;53.212;5.728;2022-10-31T06:08:17;4.17;;;2.20;;
71413;SDS011;59226;53.212;5.728;2022-10-31T06:10:42;11.10;;;2.03;;
71413;SDS011;59226;53.212;5.728;2022-10-31T06:13:07;2.60;;;1.30;;
71413;SDS011;59226;53.212;5.728;2022-10-31T06:15:33;8.93;;;2.43;;
71413;SDS011;59226;53.212;5.728;2022-10-31T06:17:59;3.53;;;1.77;;
71413;SDS011;59226;53.212;5.728;2022-10-31T06:20:24;3.17;;;1.57;;
71413;SDS011;59226;53.212;5.728;2022-10-31T06:22:49;3.83;;;1.57;;
71413;SDS011;59226;53.212;5.728;2022-10-31T06:25:14;4.43;;;2.37;;
71413;SDS011;59226;53.212;5.728;2022-10-31T06:27:40;7.60;;;1.97;;
71413;SDS011;59226;53.212;5.728;2022-10-31T06:30:05;3.83;;;1.90;;
71413;SDS011;59226;53.212;5.728;2022-10-31T06:32:30;3.25;;;1.77;;
71413;SDS011;59226;53.212;5.728;2022-10-31T06:34:56;3.10;;;2.07;;
71413;SDS011;59226;53.212;5.728;2022-10-31T06:37:21;4.53;;;2.03;;
71413;SDS011;59226;53.212;5.728;2022-10-31T06:39:46;2.97;;;1.63;;
71413;SDS011;59226;53.212;5.728;2022-10-31T06:42:11;5.43;;;2.30;;
71413;SDS011;59226;53.212;5.728;2022-10-31T06:44:36;3.23;;;1.50;;
71413;SDS011;59226;53.212;5.728;2022-10-31T06:47:02;2.63;;;1.80;;
71413;SDS011;59226;53.212;5.728;2022-10-31T06:49:27;3.40;;;2.20;;
71413;SDS011;59226;53.212;5.728;2022-10-31T06:51:52;6.63;;;3.00;;
71413;SDS011;59226;53.212;5.728;2022-10-31T06:54:17;4.30;;;1.93;;
71413;SDS011;59226;53.212;5.728;2022-10-31T06:56:45;4.50;;;1.73;;
71413;SDS011;59226;53.212;5.728;2022-10-31T06:59:10;4.47;;;1.92;;
71413;SDS011;59226;53.212;5.728;2022-10-31T07:01:35;5.50;;;2.00;;
71413;SDS011;59226;53.212;5.728;2022-10-31T07:04:01;6.00;;;2.53;;
71413;SDS011;59226;53.212;5.728;2022-10-31T07:06:26;5.70;;;2.23;;
71413;SDS011;59226;53.212;5.728;2022-10-31T07:08:51;5.80;;;2.50;;
71413;SDS011;59226;53.212;5.728;2022-10-31T07:11:16;5.13;;;2.37;;
71413;SDS011;59226;53.212;5.728;2022-10-31T07:13:41;5.83;;;3.20;;
71413;SDS011;59226;53.212;5.728;2022-10-31T07:16:07;6.27;;;2.17;;
71413;SDS011;59226;53.212;5.728;2022-10-31T07:18:32;11.07;;;2.57;;
71413;SDS011;59226;53.212;5.728;2022-10-31T07:20:57;4.07;;;1.80;;
71413;SDS011;59226;53.212;5.728;2022-10-31T07:23:23;5.53;;;1.93;;
71413;SDS011;59226;53.212;5.728;2022-10-31T07:25:48;2.63;;;1.50;;
71413;SDS011;59226;53.212;5.728;2022-10-31T07:28:13;6.93;;;2.47;;
71413;SDS011;59226;53.212;5.728;2022-10-31T07:30:38;5.33;;;2.57;;
71413;SDS011;59226;53.212;5.728;2022-10-31T07:33:04;4.50;;;1.97;;
71413;SDS011;59226;53.212;5.728;2022-10-31T07:35:30;7.32;;;2.88;;
71413;SDS011;59226;53.212;5.728;2022-10-31T07:37:55;3.25;;;1.52;;
71413;SDS011;59226;53.212;5.728;2022-10-31T07:40:21;5.33;;;2.60;;
71413;SDS011;59226;53.212;5.728;2022-10-31T07:42:47;8.55;;;2.90;;
71413;SDS011;59226;53.212;5.728;2022-10-31T07:45:14;4.22;;;2.15;;
71413;SDS011;59226;53.212;5.728;2022-10-31T07:47:43;4.87;;;2.87;;
71413;SDS011;59226;53.212;5.728;2022-10-31T07:50:11;10.95;;;2.03;;
71413;SDS011;59226;53.212;5.728;2022-10-31T07:52:36;6.35;;;2.65;;
71413;SDS011;59226;53.212;5.728;2022-10-31T07:55:02;4.17;;;1.97;;
71413;SDS011;59226;53.212;5.728;2022-10-31T07:57:28;6.75;;;2.88;;
71413;SDS011;59226;53.212;5.728;2022-10-31T07:59:53;7.37;;;2.37;;
71413;SDS011;59226;53.212;5.728;2022-10-31T08:02:18;4.90;;;3.07;;
71413;SDS011;59226;53.212;5.728;2022-10-31T08:04:43;5.23;;;3.07;;
71413;SDS011;59226;53.212;5.728;2022-10-31T08:07:09;4.93;;;2.23;;
71413;SDS011;59226;53.212;5.728;2022-10-31T08:09:34;4.93;;;2.57;;
71413;SDS011;59226;53.212;5.728;2022-10-31T08:11:59;3.67;;;2.10;;
71413;SDS011;59226;53.212;5.728;2022-10-31T08:14:24;4.27;;;2.27;;
71413;SDS011;59226;53.212;5.728;2022-10-31T08:16:49;6.67;;;3.47;;
71413;SDS011;59226;53.212;5.728;2022-10-31T08:19:15;6.03;;;2.70;;
71413;SDS011;59226;53.212;5.728;2022-10-31T08:21:40;6.43;;;2.63;;
71413;SDS011;59226;53.212;5.728;2022-10-31T08:24:05;6.47;;;2.63;;
71413;SDS011;59226;53.212;5.728;2022-10-31T08:26:30;16.40;;;3.07;;
71413;SDS011;59226;53.212;5.728;2022-10-31T08:28:56;5.90;;;2.93;;
71413;SDS011;59226;53.212;5.728;2022-10-31T08:31:21;7.45;;;3.05;;
71413;SDS011;59226;53.212;5.728;2022-10-31T08:33:47;6.13;;;3.07;;
71413;SDS011;59226;53.212;5.728;2022-10-31T08:36:13;4.57;;;2.50;;
71413;SDS011;59226;53.212;5.728;2022-10-31T08:38:38;4.37;;;2.07;;
71413;SDS011;59226;53.212;5.728;2022-10-31T08:41:03;7.53;;;2.10;;
71413;SDS011;59226;53.212;5.728;2022-10-31T08:43:28;5.23;;;2.67;;
71413;SDS011;59226;53.212;5.728;2022-10-31T08:45:53;6.10;;;2.53;;
71413;SDS011;59226;53.212;5.728;2022-10-31T08:48:20;8.60;;;4.00;;
71413;SDS011;59226;53.212;5.728;2022-10-31T08:50:45;13.32;;;3.70;;
71413;SDS011;59226;53.212;5.728;2022-10-31T08:53:15;7.43;;;3.40;;
71413;SDS011;59226;53.212;5.728;2022-10-31T08:55:40;4.10;;;2.35;;
71413;SDS011;59226;53.212;5.728;2022-10-31T08:58:07;4.47;;;2.23;;
71413;SDS011;59226;53.212;5.728;2022-10-31T09:00:32;7.50;;;3.08;;
71413;SDS011;59226;53.212;5.728;2022-10-31T09:03:02;7.15;;;3.70;;
71413;SDS011;59226;53.212;5.728;2022-10-31T09:05:28;12.13;;;3.97;;
71413;SDS011;59226;53.212;5.728;2022-10-31T09:07:57;7.37;;;3.43;;
71413;SDS011;59226;53.212;5.728;2022-10-31T09:10:22;8.02;;;3.65;;
71413;SDS011;59226;53.212;5.728;2022-10-31T09:12:53;5.70;;;2.63;;
71413;SDS011;59226;53.212;5.728;2022-10-31T09:15:19;5.47;;;3.45;;
71413;SDS011;59226;53.212;5.728;2022-10-31T09:17:47;9.33;;;3.40;;
71413;SDS011;59226;53.212;5.728;2022-10-31T09:20:13;5.17;;;2.97;;
71413;SDS011;59226;53.212;5.728;2022-10-31T09:22:38;6.63;;;3.20;;
71413;SDS011;59226;53.212;5.728;2022-10-31T09:25:03;4.63;;;2.57;;
71413;SDS011;59226;53.212;5.728;2022-10-31T09:27:28;4.63;;;2.17;;
71413;SDS011;59226;53.212;5.728;2022-10-31T09:29:54;5.67;;;2.93;;
71413;SDS011;59226;53.212;5.728;2022-10-31T09:32:19;5.30;;;2.80;;
71413;SDS011;59226;53.212;5.728;2022-10-31T09:34:44;3.67;;;1.87;;
71413;SDS011;59226;53.212;5.728;2022-10-31T09:37:09;6.90;;;3.80;;
71413;SDS011;59226;53.212;5.728;2022-10-31T09:39:34;5.70;;;2.90;;
71413;SDS011;59226;53.212;5.728;2022-10-31T09:44:47;7.20;;;3.53;;
71413;SDS011;59226;53.212;5.728;2022-10-31T09:47:22;6.27;;;2.77;;
71413;SDS011;59226;53.212;5.728;2022-10-31T09:49:59;4.22;;;2.58;;
71413;SDS011;59226;53.212;5.728;2022-10-31T09:52:31;9.02;;;2.47;;
71413;SDS011;59226;53.212;5.728;2022-10-31T09:54:59;4.05;;;2.08;;
71413;SDS011;59226;53.212;5.728;2022-10-31T09:57:27;4.63;;;2.53;;
71413;SDS011;59226;53.212;5.728;2022-10-31T09:59:52;6.73;;;2.43;;
71413;SDS011;59226;53.212;5.728;2022-10-31T10:05:03;9.67;;;2.20;;
71413;SDS011;59226;53.212;5.728;2022-10-31T10:09:57;5.40;;;1.33;;
71413;SDS011;59226;53.212;5.728;2022-10-31T10:17:38;6.30;;;2.87;;
71413;SDS011;59226;53.212;5.728;2022-10-31T10:20:21;9.43;;;3.40;;
71413;SDS011;59226;53.212;5.728;2022-10-31T10:25:26;5.88;;;2.75;;
71413;SDS011;59226;53.212;5.728;2022-10-31T10:28:04;7.15;;;2.83;;
71413;SDS011;59226;53.212;5.728;2022-10-31T10:33:20;6.85;;;3.25;;
71413;SDS011;59226;53.212;5.728;2022-10-31T10:38:33;8.07;;;2.50;;
71413;SDS011;59226;53.212;5.728;2022-10-31T10:41:02;6.20;;;3.03;;
71413;SDS011;59226;53.212;5.728;2022-10-31T10:43:36;8.45;;;3.60;;
71413;SDS011;59226;53.212;5.728;2022-10-31T10:59:39;9.20;;;3.50;;
71413;SDS011;59226;53.212;5.728;2022-10-31T11:02:15;7.63;;;3.08;;
71413;SDS011;59226;53.212;5.728;2022-10-31T11:04:40;5.53;;;3.00;;
71413;SDS011;59226;53.212;5.728;2022-10-31T11:07:07;6.40;;;3.65;;
71413;SDS011;59226;53.212;5.728;2022-10-31T11:09:33;4.63;;;2.60;;
71413;SDS011;59226;53.212;5.728;2022-10-31T11:11:58;5.80;;;2.75;;
71413;SDS011;59226;53.212;5.728;2022-10-31T11:14:25;5.80;;;2.25;;
71413;SDS011;59226;53.212;5.728;2022-10-31T11:16:53;6.27;;;2.47;;
71413;SDS011;59226;53.212;5.728;2022-10-31T11:19:25;4.60;;;1.88;;
71413;SDS011;59226;53.212;5.728;2022-10-31T11:21:52;5.53;;;2.38;;
71413;SDS011;59226;53.212;5.728;2022-10-31T11:24:24;5.47;;;2.38;;
71413;SDS011;59226;53.212;5.728;2022-10-31T11:27:02;4.57;;;2.20;;
71413;SDS011;59226;53.212;5.728;2022-10-31T11:29:28;4.65;;;1.88;;
71413;SDS011;59226;53.212;5.728;2022-10-31T11:31:54;6.27;;;2.83;;
71413;SDS011;59226;53.212;5.728;2022-10-31T11:36:48;4.25;;;1.58;;
71413;SDS011;59226;53.212;5.728;2022-10-31T11:39:15;5.27;;;2.27;;
71413;SDS011;59226;53.212;5.728;2022-10-31T11:41:41;3.92;;;1.90;;
71413;SDS011;59226;53.212;5.728;2022-10-31T11:44:14;7.47;;;2.15;;
71413;SDS011;59226;53.212;5.728;2022-10-31T11:46:42;5.28;;;2.10;;
71413;SDS011;59226;53.212;5.728;2022-10-31T11:49:19;5.07;;;2.10;;
71413;SDS011;59226;53.212;5.728;2022-10-31T11:51:47;6.83;;;2.27;;
71413;SDS011;59226;53.212;5.728;2022-10-31T11:54:18;6.20;;;2.10;;
71413;SDS011;59226;53.212;5.728;2022-10-31T11:56:44;5.97;;;1.85;;
71413;SDS011;59226;53.212;5.728;2022-10-31T11:59:50;5.27;;;1.73;;
71413;SDS011;59226;53.212;5.728;2022-10-31T12:02:02;3.92;;;1.88;;
71413;SDS011;59226;53.212;5.728;2022-10-31T12:07:12;6.90;;;2.17;;
71413;SDS011;59226;53.212;5.728;2022-10-31T12:09:38;12.07;;;2.27;;
71413;SDS011;59226;53.212;5.728;2022-10-31T12:14:53;7.63;;;2.97;;
71413;SDS011;59226;53.212;5.728;2022-10-31T12:17:31;4.97;;;2.47;;
71413;SDS011;59226;53.212;5.728;2022-10-31T12:20:05;8.38;;;2.72;;
71413;SDS011;59226;53.212;5.728;2022-10-31T12:22:47;4.18;;;1.70;;
71413;SDS011;59226;53.212;5.728;2022-10-31T12:25:37;9.45;;;2.53;;
71413;SDS011;59226;53.212;5.728;2022-10-31T12:28:09;7.60;;;2.30;;
71413;SDS011;59226;53.212;5.728;2022-10-31T12:33:08;5.80;;;2.73;;
71413;SDS011;59226;53.212;5.728;2022-10-31T12:38:42;7.70;;;3.25;;
71413;SDS011;59226;53.212;5.728;2022-10-31T12:46:02;6.83;;;2.87;;
71413;SDS011;59226;53.212;5.728;2022-10-31T12:53:36;10.77;;;2.85;;
71413;SDS011;59226;53.212;5.728;2022-10-31T12:58:40;4.63;;;1.93;;
71413;SDS011;59226;53.212;5.728;2022-10-31T13:03:33;6.30;;;2.10;;
71413;SDS011;59226;53.212;5.728;2022-10-31T13:06:07;6.65;;;2.60;;
71413;SDS011;59226;53.212;5.728;2022-10-31T13:08:38;5.73;;;2.53;;
71413;SDS011;59226;53.212;5.728;2022-10-31T13:11:15;8.48;;;2.35;;
71413;SDS011;59226;53.212;5.728;2022-10-31T13:13:49;4.05;;;1.67;;
71413;SDS011;59226;53.212;5.728;2022-10-31T13:16:17;6.93;;;1.48;;
71413;SDS011;59226;53.212;5.728;2022-10-31T13:18:51;7.25;;;2.50;;
71413;SDS011;59226;53.212;5.728;2022-10-31T13:21:18;5.33;;;2.30;;
71413;SDS011;59226;53.212;5.728;2022-10-31T13:23:45;4.45;;;1.50;;
71413;SDS011;59226;53.212;5.728;2022-10-31T13:26:15;5.18;;;1.50;;
71413;SDS011;59226;53.212;5.728;2022-10-31T13:28:48;7.85;;;1.73;;
71413;SDS011;59226;53.212;5.728;2022-10-31T13:31:16;5.38;;;1.63;;
71413;SDS011;59226;53.212;5.728;2022-10-31T13:33:43;5.63;;;1.37;;
71413;SDS011;59226;53.212;5.728;2022-10-31T13:44:14;2.60;;;0.80;;
71413;SDS011;59226;53.212;5.728;2022-10-31T13:48:57;3.27;;;1.23;;
71413;SDS011;59226;53.212;5.728;2022-10-31T13:51:26;3.67;;;0.93;;
71413;SDS011;59226;53.212;5.728;2022-10-31T13:56:25;3.08;;;1.27;;
71413;SDS011;59226;53.212;5.728;2022-10-31T14:01:35;2.40;;;1.08;;
71413;SDS011;59226;53.212;5.728;2022-10-31T14:06:37;3.50;;;0.80;;
71413;SDS011;59226;53.212;5.728;2022-10-31T14:09:03;2.35;;;0.55;;
71413;SDS011;59226;53.212;5.728;2022-10-31T14:11:28;1.50;;;0.60;;
71413;SDS011;59226;53.212;5.728;2022-10-31T14:13:55;7.10;;;1.43;;
71413;SDS011;59226;53.212;5.728;2022-10-31T14:16:28;1.63;;;0.70;;
71413;SDS011;59226;53.212;5.728;2022-10-31T14:19:02;2.42;;;0.93;;
71413;SDS011;59226;53.212;5.728;2022-10-31T14:21:30;1.13;;;0.63;;
71413;SDS011;59226;53.212;5.728;2022-10-31T14:23:56;4.82;;;1.40;;
71413;SDS011;59226;53.212;5.728;2022-10-31T14:28:51;3.58;;;1.08;;
71413;SDS011;59226;53.212;5.728;2022-10-31T14:33:51;3.58;;;1.13;;
71413;SDS011;59226;53.212;5.728;2022-10-31T14:36:40;1.63;;;0.90;;
71413;SDS011;59226;53.212;5.728;2022-10-31T14:39:11;3.17;;;1.17;;
71413;SDS011;59226;53.212;5.728;2022-10-31T14:44:29;2.70;;;1.17;;
71413;SDS011;59226;53.212;5.728;2022-10-31T14:51:59;4.87;;;1.97;;
71413;SDS011;59226;53.212;5.728;2022-10-31T14:54:29;3.67;;;1.33;;
71413;SDS011;59226;53.212;5.728;2022-10-31T14:56:56;7.82;;;1.73;;
71413;SDS011;59226;53.212;5.728;2022-10-31T14:59:24;3.38;;;2.13;;
71413;SDS011;59226;53.212;5.728;2022-10-31T15:01:54;3.17;;;1.33;;
71413;SDS011;59226;53.212;5.728;2022-10-31T15:04:22;4.33;;;1.93;;
71413;SDS011;59226;53.212;5.728;2022-10-31T15:06:49;4.10;;;1.27;;
71413;SDS011;59226;53.212;5.728;2022-10-31T15:09:31;0.98;;;0.50;;
71413;SDS011;59226;53.212;5.728;2022-10-31T15:11:58;5.32;;;1.48;;
71413;SDS011;59226;53.212;5.728;2022-10-31T15:14:30;2.80;;;1.15;;
71413;SDS011;59226;53.212;5.728;2022-10-31T15:17:01;1.63;;;0.70;;
71413;SDS011;59226;53.212;5.728;2022-10-31T15:19:28;2.10;;;0.63;;
71413;SDS011;59226;53.212;5.728;2022-10-31T15:21:54;5.72;;;0.88;;
71413;SDS011;59226;53.212;5.728;2022-10-31T15:24:20;4.13;;;1.15;;
71413;SDS011;59226;53.212;5.728;2022-10-31T15:26:48;1.80;;;0.82;;
71413;SDS011;59226;53.212;5.728;2022-10-31T15:29:15;7.03;;;1.67;;
71413;SDS011;59226;53.212;5.728;2022-10-31T15:31:57;2.58;;;1.20;;
71413;SDS011;59226;53.212;5.728;2022-10-31T15:36:51;2.65;;;1.30;;
71413;SDS011;59226;53.212;5.728;2022-10-31T15:39:17;2.77;;;1.07;;
71413;SDS011;59226;53.212;5.728;2022-10-31T15:41:47;1.97;;;0.70;;
71413;SDS011;59226;53.212;5.728;2022-10-31T15:44:19;1.45;;;0.68;;
71413;SDS011;59226;53.212;5.728;2022-10-31T15:46:51;5.90;;;1.23;;
71413;SDS011;59226;53.212;5.728;2022-10-31T15:49:51;1.50;;;0.73;;
71413;SDS011;59226;53.212;5.728;2022-10-31T15:52:29;2.15;;;0.70;;
71413;SDS011;59226;53.212;5.728;2022-10-31T15:54:56;6.53;;;1.00;;
71413;SDS011;59226;53.212;5.728;2022-10-31T15:57:23;2.25;;;0.90;;
71413;SDS011;59226;53.212;5.728;2022-10-31T15:59:49;2.78;;;1.30;;
71413;SDS011;59226;53.212;5.728;2022-10-31T16:02:18;1.50;;;0.73;;
71413;SDS011;59226;53.212;5.728;2022-10-31T16:04:56;1.27;;;0.68;;
71413;SDS011;59226;53.212;5.728;2022-10-31T16:07:22;2.80;;;1.43;;
71413;SDS011;59226;53.212;5.728;2022-10-31T16:09:49;1.83;;;0.82;;
71413;SDS011;59226;53.212;5.728;2022-10-31T16:12:14;2.40;;;0.60;;
71413;SDS011;59226;53.212;5.728;2022-10-31T16:14:40;9.30;;;1.13;;
71413;SDS011;59226;53.212;5.728;2022-10-31T16:17:06;1.63;;;0.60;;
71413;SDS011;59226;53.212;5.728;2022-10-31T16:19:36;1.83;;;0.77;;
71413;SDS011;59226;53.212;5.728;2022-10-31T16:22:11;3.40;;;0.75;;
71413;SDS011;59226;53.212;5.728;2022-10-31T16:24:51;1.55;;;0.68;;
71413;SDS011;59226;53.212;5.728;2022-10-31T16:27:20;2.35;;;0.77;;
71413;SDS011;59226;53.212;5.728;2022-10-31T16:29:50;2.05;;;1.23;;
71413;SDS011;59226;53.212;5.728;2022-10-31T16:32:35;0.90;;;0.40;;
71413;SDS011;59226;53.212;5.728;2022-10-31T16:35:46;2.17;;;1.05;;
71413;SDS011;59226;53.212;5.728;2022-10-31T16:37:46;1.38;;;0.60;;
71413;SDS011;59226;53.212;5.728;2022-10-31T16:40:14;1.60;;;0.80;;
71413;SDS011;59226;53.212;5.728;2022-10-31T16:42:40;1.38;;;0.60;;
71413;SDS011;59226;53.212;5.728;2022-10-31T16:45:06;2.07;;;0.97;;
71413;SDS011;59226;53.212;5.728;2022-10-31T16:47:31;2.70;;;1.02;;
71413;SDS011;59226;53.212;5.728;2022-10-31T16:49:56;2.10;;;0.80;;
71413;SDS011;59226;53.212;5.728;2022-10-31T16:52:24;3.35;;;1.38;;
71413;SDS011;59226;53.212;5.728;2022-10-31T16:54:50;5.77;;;1.47;;
71413;SDS011;59226;53.212;5.728;2022-10-31T16:57:16;3.33;;;1.10;;
71413;SDS011;59226;53.212;5.728;2022-10-31T16:59:42;4.80;;;1.58;;